createdAt,value
2022-11-10T00:00:12.386Z,49.82
2022-11-10T00:01:12.377Z,59.75
2022-11-10T00:02:12.373Z,55.97
2022-11-10T00:03:12.363Z,59.71
2022-11-10T00:04:12.478Z,56.89
2022-11-10T00:05:12.345Z,60.18
2022-11-10T00:06:12.330Z,57.13
2022-11-10T00:07:12.351Z,64.20
2022-11-10T00:08:12.319Z,52.66
2022-11-10T00:09:12.340Z,58.64
2022-11-10T00:10:12.311Z,51.80
2022-11-10T00:11:12.294Z,59.53
2022-11-10T00:12:12.287Z,62.19
2022-11-10T00:13:12.276Z,54.96
2022-11-10T00:14:12.296Z,53.18
2022-11-10T00:15:12.260Z,60.40
2022-11-10T00:16:12.262Z,63.11
2022-11-10T00:17:12.249Z,59.70
2022-11-10T00:18:12.239Z,52.63
2022-11-10T00:19:12.257Z,52.13
2022-11-10T00:20:12.220Z,56.01
2022-11-10T00:21:12.234Z,56.65
2022-11-10T00:22:12.202Z,54.82
2022-11-10T00:23:12.193Z,49.77
2022-11-10T00:24:12.219Z,61.75
2022-11-10T00:25:12.185Z,58.12
2022-11-10T00:26:12.184Z,49.11
2022-11-10T00:27:12.166Z,54.91
2022-11-10T00:28:12.153Z,57.94
2022-11-10T00:29:12.184Z,61.23
2022-11-10T00:30:12.162Z,62.05
2022-11-10T00:31:12.125Z,56.86
2022-11-10T00:32:12.124Z,45.17
2022-11-10T00:33:12.109Z,59.95
2022-11-10T00:34:12.142Z,63.23
2022-11-10T00:35:12.092Z,47.16
2022-11-10T00:36:12.097Z,53.21
2022-11-10T00:37:12.084Z,65.49
2022-11-10T00:38:12.075Z,46.20
2022-11-10T00:39:12.059Z,50.39
2022-11-10T00:40:12.077Z,41.08
2022-11-10T00:41:12.043Z,57.96
2022-11-10T00:42:12.036Z,57.23
2022-11-10T00:43:12.032Z,63.56
2022-11-10T00:44:12.016Z,44.68
2022-11-10T00:45:12.042Z,55.52
2022-11-10T00:46:12.004Z,47.48
2022-11-10T00:47:11.989Z,42.96
2022-11-10T00:48:11.980Z,58.58
2022-11-10T00:49:11.983Z,57.63
2022-11-10T00:50:11.997Z,61.03
2022-11-10T00:51:11.958Z,53.16
2022-11-10T00:52:11.948Z,57.73
2022-11-10T00:53:11.951Z,58.22
2022-11-10T00:54:11.931Z,68.72
2022-11-10T00:55:12.949Z,62.20
2022-11-10T00:56:11.919Z,56.75
2022-11-10T00:57:11.940Z,61.10
2022-11-10T00:58:11.900Z,50.30
2022-11-10T00:59:11.889Z,54.28
2022-11-10T01:00:11.884Z,62.01
2022-11-10T01:01:11.894Z,53.50
2022-11-10T01:02:11.897Z,59.63
2022-11-10T01:03:11.853Z,54.56
2022-11-10T01:04:11.856Z,42.80
2022-11-10T01:05:11.843Z,48.31
2022-11-10T01:06:11.844Z,56.75
2022-11-10T01:07:12.099Z,58.32
2022-11-10T01:08:11.817Z,58.99
2022-11-10T01:09:11.827Z,44.55
2022-11-10T01:10:11.804Z,52.56
2022-11-10T01:11:11.786Z,42.77
2022-11-10T01:12:12.026Z,40.72
2022-11-10T01:13:11.782Z,44.91
2022-11-10T01:14:11.775Z,55.24
2022-11-10T01:15:11.757Z,59.38
2022-11-10T01:16:11.744Z,46.14
2022-11-10T01:17:12.057Z,57.02
2022-11-10T01:18:11.735Z,65.60
2022-11-10T01:19:11.729Z,62.69
2022-11-10T01:20:11.712Z,57.40
2022-11-10T01:21:11.695Z,54.86
2022-11-10T01:22:12.724Z,56.57
2022-11-10T01:23:11.689Z,56.21
2022-11-10T01:24:11.680Z,57.03
2022-11-10T01:25:11.688Z,53.29
2022-11-10T01:26:11.670Z,52.74
2022-11-10T01:27:11.682Z,45.71
2022-11-10T01:28:11.647Z,67.12
2022-11-10T01:29:11.641Z,57.61
2022-11-10T01:30:11.653Z,57.46
2022-11-10T01:31:11.635Z,69.32
2022-11-10T01:32:11.635Z,66.02
2022-11-10T01:33:12.608Z,57.99
2022-11-10T01:34:11.596Z,49.78
2022-11-10T01:35:11.605Z,71.74
2022-11-10T01:36:11.587Z,65.04
2022-11-10T01:37:11.617Z,49.64
2022-11-10T01:38:12.565Z,51.14
2022-11-10T01:39:11.555Z,65.65
2022-11-10T01:40:11.600Z,48.04
2022-11-10T01:41:11.549Z,50.12
2022-11-10T01:42:11.589Z,57.09
2022-11-10T01:43:11.525Z,65.75
2022-11-10T01:44:11.527Z,53.62
2022-11-10T01:45:11.506Z,56.30
2022-11-10T01:46:11.504Z,63.43
2022-11-10T01:47:11.761Z,51.19
2022-11-10T01:48:11.492Z,54.25
2022-11-10T01:49:11.477Z,60.63
2022-11-10T01:50:11.466Z,69.89
2022-11-10T01:51:11.460Z,61.97
2022-11-10T01:52:11.489Z,50.90
2022-11-10T01:53:11.446Z,59.62
2022-11-10T01:54:11.428Z,64.84
2022-11-10T01:55:11.423Z,64.56
2022-11-10T01:56:11.424Z,57.73
2022-11-10T01:57:11.439Z,57.14
2022-11-10T01:58:11.402Z,60.62
2022-11-10T01:59:11.413Z,49.64
2022-11-10T02:00:11.382Z,71.89
2022-11-10T02:01:11.422Z,61.53
2022-11-10T02:02:11.401Z,57.05
2022-11-10T02:03:11.356Z,52.86
2022-11-10T02:04:11.362Z,54.47
2022-11-10T02:05:11.347Z,69.13
2022-11-10T02:06:11.336Z,58.82
2022-11-10T02:07:11.412Z,55.24
2022-11-10T02:08:11.319Z,51.92
2022-11-10T02:09:11.309Z,55.34
2022-11-10T02:10:11.307Z,59.48
2022-11-10T02:11:11.293Z,50.56
2022-11-10T02:12:11.322Z,44.64
2022-11-10T02:13:11.271Z,53.40
2022-11-10T02:14:11.274Z,57.52
2022-11-10T02:15:11.260Z,56.43
2022-11-10T02:16:11.256Z,55.37
2022-11-10T02:17:11.272Z,67.32
2022-11-10T02:18:11.239Z,52.00
2022-11-10T02:19:11.228Z,56.11
2022-11-10T02:20:11.224Z,66.65
2022-11-10T02:21:11.219Z,58.56
2022-11-10T02:22:11.237Z,58.85
2022-11-10T02:23:11.193Z,54.65
2022-11-10T02:24:11.184Z,49.29
2022-11-10T02:25:11.190Z,64.40
2022-11-10T02:26:11.162Z,55.29
2022-11-10T02:27:11.198Z,50.19
2022-11-10T02:28:11.152Z,59.41
2022-11-10T02:29:11.140Z,59.01
2022-11-10T02:30:11.144Z,51.84
2022-11-10T02:31:11.153Z,48.56
2022-11-10T02:32:11.154Z,55.52
2022-11-10T02:33:12.105Z,55.29
2022-11-10T02:34:11.106Z,57.47
2022-11-10T02:35:11.088Z,61.79
2022-11-10T02:36:11.094Z,48.50
2022-11-10T02:37:11.100Z,51.69
2022-11-10T02:38:11.067Z,68.10
2022-11-10T02:39:11.079Z,57.98
2022-11-10T02:40:11.047Z,59.69
2022-11-10T02:41:11.044Z,57.05
2022-11-10T02:42:11.070Z,64.08
2022-11-10T02:43:11.030Z,58.38
2022-11-10T02:44:11.015Z,52.40
2022-11-10T02:45:11.013Z,55.18
2022-11-10T02:46:10.997Z,55.32
2022-11-10T02:47:11.040Z,61.40
2022-11-10T02:48:10.989Z,54.92
2022-11-10T02:49:10.983Z,61.73
2022-11-10T02:50:10.983Z,56.44
2022-11-10T02:51:10.957Z,53.53
2022-11-10T02:52:10.986Z,62.86
2022-11-10T02:53:10.946Z,61.99
2022-11-10T02:54:10.939Z,59.00
2022-11-10T02:55:10.932Z,62.07
2022-11-10T02:56:10.916Z,62.09
2022-11-10T02:57:10.937Z,58.90
2022-11-10T02:58:10.911Z,61.63
2022-11-10T02:59:10.897Z,63.23
2022-11-10T03:00:10.886Z,68.02
2022-11-10T03:01:10.929Z,58.00
2022-11-10T03:02:10.902Z,56.19
2022-11-10T03:03:10.876Z,60.96
2022-11-10T03:04:10.852Z,62.41
2022-11-10T03:05:10.857Z,62.12
2022-11-10T03:06:10.836Z,59.89
2022-11-10T03:07:10.914Z,62.19
2022-11-10T03:08:10.819Z,63.16
2022-11-10T03:09:10.816Z,69.57
2022-11-10T03:10:10.811Z,59.85
2022-11-10T03:11:10.804Z,56.28
2022-11-10T03:12:10.842Z,65.76
2022-11-10T03:13:10.783Z,53.94
2022-11-10T03:14:10.772Z,63.57
2022-11-10T03:15:10.774Z,54.23
2022-11-10T03:16:10.752Z,61.47
2022-11-10T03:17:10.742Z,56.45
2022-11-10T03:18:10.799Z,50.59
2022-11-10T03:19:10.738Z,44.51
2022-11-10T03:20:10.729Z,50.90
2022-11-10T03:21:10.715Z,50.04
2022-11-10T03:22:10.714Z,51.94
2022-11-10T03:23:10.729Z,56.92
2022-11-10T03:24:10.687Z,64.93
2022-11-10T03:25:10.685Z,59.70
2022-11-10T03:26:10.675Z,64.18
2022-11-10T03:27:10.664Z,60.16
2022-11-10T03:28:10.690Z,53.62
2022-11-10T03:29:10.667Z,58.33
2022-11-10T03:30:10.654Z,61.43
2022-11-10T03:31:10.641Z,59.10
2022-11-10T03:32:10.626Z,55.76
2022-11-10T03:33:10.645Z,61.17
2022-11-10T03:34:10.615Z,65.50
2022-11-10T03:35:10.604Z,70.78
2022-11-10T03:36:10.596Z,60.13
2022-11-10T03:37:10.594Z,61.30
2022-11-10T03:38:10.616Z,55.41
2022-11-10T03:39:10.582Z,68.13
2022-11-10T03:40:10.579Z,62.85
2022-11-10T03:41:19.787Z,59.65
2022-11-10T03:42:12.553Z,66.58
2022-11-10T03:43:10.573Z,59.34
2022-11-10T03:44:10.533Z,62.21
2022-11-10T03:45:10.528Z,66.30
2022-11-10T03:46:10.532Z,62.40
2022-11-10T03:47:10.516Z,57.94
2022-11-10T03:48:10.540Z,57.57
2022-11-10T03:49:10.494Z,59.60
2022-11-10T03:50:10.489Z,59.74
2022-11-10T03:51:10.479Z,55.25
2022-11-10T03:52:10.476Z,55.19
2022-11-10T03:53:10.518Z,61.66
2022-11-10T03:54:10.454Z,59.49
2022-11-10T03:55:10.437Z,69.01
2022-11-10T03:56:10.439Z,63.91
2022-11-10T03:57:10.445Z,53.47
2022-11-10T03:58:10.450Z,60.22
2022-11-10T03:59:10.409Z,67.24
2022-11-10T04:00:10.403Z,59.89
2022-11-10T04:01:10.402Z,65.56
2022-11-10T04:02:10.459Z,61.11
2022-11-10T04:03:10.413Z,62.14
2022-11-10T04:04:10.372Z,66.01
2022-11-10T04:05:10.361Z,58.98
2022-11-10T04:06:10.373Z,65.08
2022-11-10T04:07:10.376Z,64.75
2022-11-10T04:08:10.367Z,70.78
2022-11-10T04:09:10.329Z,64.60
2022-11-10T04:10:10.328Z,66.86
2022-11-10T04:11:10.315Z,66.75
2022-11-10T04:12:10.313Z,65.23
2022-11-10T04:13:10.360Z,67.04
2022-11-10T04:14:10.283Z,64.32
2022-11-10T04:15:10.289Z,66.82
2022-11-10T04:16:10.301Z,65.37
2022-11-10T04:17:10.263Z,66.78
2022-11-10T04:18:10.290Z,64.90
2022-11-10T04:19:10.247Z,66.70
2022-11-10T04:20:10.255Z,67.99
2022-11-10T04:21:10.242Z,63.51
2022-11-10T04:22:10.219Z,70.56
2022-11-10T04:23:10.261Z,65.35
2022-11-10T04:24:10.213Z,69.86
2022-11-10T04:25:10.206Z,60.28
2022-11-10T04:26:10.195Z,66.68
2022-11-10T04:27:10.187Z,64.50
2022-11-10T04:28:10.205Z,64.36
2022-11-10T04:29:10.165Z,65.74
2022-11-10T04:30:10.189Z,66.93
2022-11-10T04:31:10.158Z,67.63
2022-11-10T04:32:10.152Z,67.49
2022-11-10T04:33:10.169Z,72.42
2022-11-10T04:34:10.136Z,66.81
2022-11-10T04:35:10.123Z,69.80
2022-11-10T04:36:10.109Z,66.39
2022-11-10T04:37:10.097Z,62.97
2022-11-10T04:38:10.137Z,64.61
2022-11-10T04:39:10.082Z,64.79
2022-11-10T04:40:10.072Z,71.11
2022-11-10T04:41:10.069Z,71.42
2022-11-10T04:42:10.054Z,63.73
2022-11-10T04:43:10.075Z,67.83
2022-11-10T04:44:10.049Z,70.78
2022-11-10T04:45:10.036Z,65.96
2022-11-10T04:46:10.026Z,68.13
2022-11-10T04:47:11.993Z,68.80
2022-11-10T04:48:11.053Z,65.76
2022-11-10T04:49:10.005Z,67.46
2022-11-10T04:50:09.992Z,68.57
2022-11-10T04:51:10.039Z,62.53
2022-11-10T04:52:09.989Z,65.74
2022-11-10T04:53:10.018Z,68.39
2022-11-10T04:54:09.966Z,73.18
2022-11-10T04:55:09.945Z,63.99
2022-11-10T04:56:09.952Z,69.31
2022-11-10T04:57:09.939Z,71.43
2022-11-10T04:58:09.938Z,66.11
2022-11-10T04:59:09.953Z,70.70
2022-11-10T05:00:09.898Z,68.94
2022-11-10T05:01:10.929Z,64.96
2022-11-10T05:02:09.892Z,60.15
2022-11-10T05:03:09.889Z,67.46
2022-11-10T05:04:09.913Z,68.54
2022-11-10T05:05:09.888Z,66.64
2022-11-10T05:06:09.863Z,62.95
2022-11-10T05:07:09.902Z,66.99
2022-11-10T05:08:09.862Z,66.77
2022-11-10T05:09:09.865Z,68.77
2022-11-10T05:10:09.829Z,62.45
2022-11-10T05:11:09.824Z,70.45
2022-11-10T05:12:09.815Z,70.19
2022-11-10T05:13:09.836Z,65.58
2022-11-10T05:14:09.802Z,66.26
2022-11-10T05:15:09.793Z,68.66
2022-11-10T05:16:09.784Z,74.39
2022-11-10T05:17:09.768Z,67.57
2022-11-10T05:18:09.793Z,68.59
2022-11-10T05:19:09.757Z,68.93
2022-11-10T05:20:09.747Z,71.45
2022-11-10T05:21:09.737Z,67.49
2022-11-10T05:22:09.732Z,70.96
2022-11-10T05:23:09.758Z,71.43
2022-11-10T05:24:09.711Z,69.76
2022-11-10T05:25:09.702Z,71.22
2022-11-10T05:26:09.704Z,68.05
2022-11-10T05:27:09.699Z,65.42
2022-11-10T05:28:09.720Z,69.97
2022-11-10T05:29:09.668Z,72.63
2022-11-10T05:30:09.663Z,71.49
2022-11-10T05:31:09.683Z,68.09
2022-11-10T05:32:09.648Z,73.22
2022-11-10T05:33:09.635Z,65.79
2022-11-10T05:34:09.659Z,64.07
2022-11-10T05:35:09.628Z,68.92
2022-11-10T05:36:09.616Z,71.29
2022-11-10T05:37:09.643Z,71.60
2022-11-10T05:38:09.616Z,71.07
2022-11-10T05:39:09.616Z,68.11
2022-11-10T05:40:09.584Z,68.85
2022-11-10T05:41:09.588Z,68.72
2022-11-10T05:42:09.560Z,73.71
2022-11-10T05:43:09.566Z,71.16
2022-11-10T05:44:09.573Z,70.83
2022-11-10T05:45:09.533Z,74.01
2022-11-10T05:46:09.528Z,72.53
2022-11-10T05:47:10.541Z,72.90
2022-11-10T05:48:09.514Z,71.92
2022-11-10T05:49:09.545Z,67.92
2022-11-10T05:50:09.509Z,72.07
2022-11-10T05:51:09.517Z,74.32
2022-11-10T05:52:09.496Z,74.11
2022-11-10T05:53:09.480Z,66.87
2022-11-10T05:54:09.493Z,67.43
2022-11-10T05:55:09.456Z,68.81
2022-11-10T05:56:09.451Z,69.66
2022-11-10T05:57:09.462Z,71.76
2022-11-10T05:58:09.447Z,69.76
2022-11-10T05:59:09.456Z,70.56
2022-11-10T06:00:09.419Z,68.35
2022-11-10T06:01:09.419Z,68.90
2022-11-10T06:02:09.402Z,69.39
2022-11-10T06:03:09.431Z,69.71
2022-11-10T06:04:09.414Z,71.54
2022-11-10T06:05:09.376Z,71.17
2022-11-10T06:06:09.374Z,70.21
2022-11-10T06:07:09.402Z,64.64
2022-11-10T06:08:09.356Z,71.95
2022-11-10T06:09:10.378Z,69.92
2022-11-10T06:10:09.338Z,69.06
2022-11-10T06:11:09.343Z,63.95
2022-11-10T06:12:09.332Z,71.13
2022-11-10T06:13:09.316Z,70.58
2022-11-10T06:14:09.331Z,71.42
2022-11-10T06:15:09.306Z,71.34
2022-11-10T06:16:09.292Z,72.52
2022-11-10T06:17:09.282Z,73.57
2022-11-10T06:18:09.281Z,72.36
2022-11-10T06:19:09.294Z,70.21
2022-11-10T06:20:09.259Z,71.71
2022-11-10T06:21:09.248Z,71.96
2022-11-10T06:22:09.272Z,71.94
2022-11-10T06:23:09.229Z,71.42
2022-11-10T06:24:09.253Z,71.21
2022-11-10T06:25:09.216Z,71.26
2022-11-10T06:26:09.236Z,72.65
2022-11-10T06:27:10.208Z,72.88
2022-11-10T06:28:09.196Z,69.29
2022-11-10T06:29:09.278Z,69.79
2022-11-10T06:30:09.174Z,72.47
2022-11-10T06:31:09.168Z,70.79
2022-11-10T06:32:09.164Z,72.03
2022-11-10T06:33:09.148Z,71.49
2022-11-10T06:34:09.176Z,69.35
2022-11-10T06:35:09.135Z,71.29
2022-11-10T06:36:09.171Z,69.72
2022-11-10T06:37:09.123Z,71.97
2022-11-10T06:38:09.114Z,71.98
2022-11-10T06:39:09.140Z,70.12
2022-11-10T06:40:09.098Z,65.99
2022-11-10T06:41:09.084Z,71.01
2022-11-10T06:42:09.082Z,68.81
2022-11-10T06:43:09.077Z,75.19
2022-11-10T06:44:09.108Z,71.02
2022-11-10T06:45:09.055Z,71.39
2022-11-10T06:46:09.040Z,71.62
2022-11-10T06:47:09.042Z,72.77
2022-11-10T06:48:09.031Z,70.79
2022-11-10T06:49:09.054Z,66.40
2022-11-10T06:50:09.007Z,66.48
2022-11-10T06:51:09.016Z,70.75
2022-11-10T06:52:09.001Z,70.14
2022-11-10T06:53:08.985Z,77.63
2022-11-10T06:54:08.985Z,67.87
2022-11-10T06:55:09.010Z,67.40
2022-11-10T06:56:08.971Z,69.93
2022-11-10T06:57:08.977Z,69.84
2022-11-10T06:58:08.940Z,69.58
2022-11-10T06:59:08.939Z,68.89
2022-11-10T07:00:08.969Z,66.55
2022-11-10T07:01:08.949Z,65.07
2022-11-10T07:02:08.917Z,72.82
2022-11-10T07:03:08.909Z,71.10
2022-11-10T07:04:24.342Z,72.11
2022-11-10T07:05:10.920Z,71.31
2022-11-10T07:06:08.880Z,66.34
2022-11-10T07:07:08.948Z,68.87
2022-11-10T07:08:08.867Z,72.15
2022-11-10T07:09:08.848Z,69.34
2022-11-10T07:10:08.878Z,68.59
2022-11-10T07:11:08.837Z,71.45
2022-11-10T07:12:08.823Z,68.89
2022-11-10T07:13:08.822Z,71.28
2022-11-10T07:14:08.818Z,71.41
2022-11-10T07:15:08.843Z,65.95
2022-11-10T07:16:08.799Z,59.82
2022-11-10T07:17:08.794Z,69.05
2022-11-10T07:18:08.788Z,70.27
2022-11-10T07:19:08.773Z,69.68
2022-11-10T07:20:08.800Z,70.05
2022-11-10T07:21:08.767Z,70.24
2022-11-10T07:22:11.211Z,70.22
2022-11-10T07:23:09.748Z,68.48
2022-11-10T07:24:08.730Z,69.55
2022-11-10T07:25:08.755Z,64.54
2022-11-10T07:26:08.711Z,66.14
2022-11-10T07:27:08.700Z,70.73
2022-11-10T07:28:08.710Z,74.31
2022-11-10T07:29:08.684Z,71.57
2022-11-10T07:30:08.784Z,71.09
2022-11-10T07:31:08.673Z,71.94
2022-11-10T07:32:08.669Z,71.63
2022-11-10T07:33:08.658Z,65.55
2022-11-10T07:34:08.660Z,66.10
2022-11-10T07:35:08.684Z,69.05
2022-11-10T07:36:08.633Z,69.07
2022-11-10T07:37:08.624Z,72.89
2022-11-10T07:38:08.617Z,70.82
2022-11-10T07:39:08.625Z,68.81
2022-11-10T07:40:08.633Z,67.12
2022-11-10T07:41:08.588Z,64.85
2022-11-10T07:42:08.583Z,73.86
2022-11-10T07:43:09.571Z,72.07
2022-11-10T07:44:08.576Z,66.46
2022-11-10T07:45:08.586Z,71.52
2022-11-10T07:46:08.560Z,69.97
2022-11-10T07:47:08.546Z,70.62
2022-11-10T07:48:08.526Z,66.62
2022-11-10T07:49:08.532Z,67.85
2022-11-10T07:50:08.545Z,70.76
2022-11-10T07:51:08.519Z,69.11
2022-11-10T07:52:08.487Z,67.95
2022-11-10T07:53:09.490Z,68.33
2022-11-10T07:54:08.475Z,70.80
2022-11-10T07:55:08.522Z,65.72
2022-11-10T07:56:08.463Z,68.73
2022-11-10T07:57:08.468Z,70.34
2022-11-10T07:58:08.459Z,66.45
2022-11-10T07:59:09.440Z,65.68
2022-11-10T08:00:08.455Z,69.16
2022-11-10T08:01:08.436Z,67.36
2022-11-10T08:02:08.501Z,61.10
2022-11-10T08:03:08.397Z,71.13
2022-11-10T08:04:08.395Z,69.23
2022-11-10T08:05:08.515Z,70.42
2022-11-10T08:06:08.379Z,67.10
2022-11-10T08:07:08.563Z,71.57
2022-11-10T08:08:08.375Z,68.16
2022-11-10T08:09:08.352Z,65.63
2022-11-10T08:10:08.381Z,61.22
2022-11-10T08:11:08.338Z,68.07
2022-11-10T08:12:08.332Z,69.69
2022-11-10T08:13:08.314Z,68.25
2022-11-10T08:14:08.320Z,63.93
2022-11-10T08:15:08.338Z,66.76
2022-11-10T08:16:08.295Z,67.38
2022-11-10T08:17:08.288Z,70.63
2022-11-10T08:18:08.283Z,66.39
2022-11-10T08:19:08.276Z,65.99
2022-11-10T08:20:08.263Z,68.03
2022-11-10T08:21:08.287Z,70.36
2022-11-10T08:22:08.252Z,69.25
2022-11-10T08:23:08.238Z,62.86
2022-11-10T08:24:08.571Z,71.08
2022-11-10T08:25:09.222Z,67.39
2022-11-10T08:26:08.275Z,67.00
2022-11-10T08:27:09.207Z,68.58
2022-11-10T08:28:08.196Z,65.80
2022-11-10T08:29:08.194Z,66.35
2022-11-10T08:30:08.188Z,70.33
2022-11-10T08:31:08.207Z,69.18
2022-11-10T08:32:08.159Z,71.52
2022-11-10T08:33:08.154Z,70.52
2022-11-10T08:34:08.147Z,69.63
2022-11-10T08:35:08.135Z,67.24
2022-11-10T08:36:08.148Z,66.76
2022-11-10T08:37:09.123Z,72.08
2022-11-10T08:38:09.428Z,67.51
2022-11-10T08:39:09.108Z,70.83
2022-11-10T08:40:08.103Z,67.17
2022-11-10T08:41:08.119Z,69.88
2022-11-10T08:42:08.077Z,69.33
2022-11-10T08:43:08.070Z,67.24
2022-11-10T08:44:10.876Z,64.03
2022-11-10T08:45:09.058Z,71.07
2022-11-10T08:46:08.079Z,69.78
2022-11-10T08:47:08.032Z,69.79
2022-11-10T08:48:08.033Z,71.64
2022-11-10T08:49:09.025Z,69.01
2022-11-10T08:50:08.014Z,70.59
2022-11-10T08:51:08.037Z,65.86
2022-11-10T08:52:07.995Z,64.83
2022-11-10T08:53:07.996Z,69.15
2022-11-10T08:54:07.990Z,69.18
2022-11-10T08:55:07.958Z,66.53
2022-11-10T08:56:08.008Z,67.62
2022-11-10T08:57:07.953Z,67.41
2022-11-10T08:58:07.951Z,68.09
2022-11-10T08:59:07.936Z,68.65
2022-11-10T09:00:07.937Z,70.32
2022-11-10T09:01:07.963Z,65.57
2022-11-10T09:02:07.913Z,65.99
2022-11-10T09:03:07.910Z,70.13
2022-11-10T09:04:07.982Z,66.58
2022-11-10T09:05:07.894Z,65.86
2022-11-10T09:06:07.926Z,68.91
2022-11-10T09:07:07.912Z,68.69
2022-11-10T09:08:07.866Z,72.93
2022-11-10T09:09:07.868Z,70.45
2022-11-10T09:10:08.260Z,71.53
2022-11-10T09:11:07.882Z,63.72
2022-11-10T09:12:07.845Z,67.40
2022-11-10T09:13:07.832Z,70.27
2022-11-10T09:14:07.826Z,68.88
2022-11-10T09:15:07.802Z,65.96
2022-11-10T09:16:08.837Z,67.74
2022-11-10T09:17:07.793Z,68.08
2022-11-10T09:18:07.801Z,67.85
2022-11-10T09:19:07.791Z,68.04
2022-11-10T09:20:07.905Z,65.81
2022-11-10T09:21:07.796Z,66.70
2022-11-10T09:22:07.764Z,66.62
2022-11-10T09:23:07.752Z,63.89
2022-11-10T09:24:07.742Z,66.46
2022-11-10T09:25:07.735Z,69.92
2022-11-10T09:26:07.766Z,66.45
2022-11-10T09:27:07.720Z,72.41
2022-11-10T09:28:07.716Z,67.78
2022-11-10T09:29:07.698Z,64.16
2022-11-10T09:30:10.547Z,67.60
2022-11-10T09:31:08.678Z,70.40
2022-11-10T09:32:07.682Z,65.03
2022-11-10T09:33:07.692Z,65.54
2022-11-10T09:34:07.664Z,66.92
2022-11-10T09:35:07.683Z,68.13
2022-11-10T09:36:07.641Z,68.93
2022-11-10T09:37:07.629Z,65.05
2022-11-10T09:38:07.619Z,68.39
2022-11-10T09:39:07.618Z,70.61
2022-11-10T09:40:11.852Z,64.29
2022-11-10T09:41:09.592Z,70.78
2022-11-10T09:42:07.622Z,69.08
2022-11-10T09:43:07.578Z,68.06
2022-11-10T09:44:07.583Z,70.04
2022-11-10T09:45:07.564Z,68.91
2022-11-10T09:46:07.594Z,70.49
2022-11-10T09:47:07.551Z,71.66
2022-11-10T09:48:07.541Z,66.31
2022-11-10T09:49:07.538Z,64.65
2022-11-10T09:50:07.566Z,69.10
2022-11-10T09:51:07.535Z,66.36
2022-11-10T09:52:07.506Z,63.53
2022-11-10T09:53:07.506Z,68.75
2022-11-10T09:54:07.489Z,68.68
2022-11-10T09:55:08.520Z,69.34
2022-11-10T09:56:07.472Z,62.08
2022-11-10T09:57:07.611Z,69.45
2022-11-10T09:58:07.464Z,70.68
2022-11-10T09:59:07.462Z,72.74
2022-11-10T10:00:07.485Z,68.40
2022-11-10T10:01:07.454Z,70.45
2022-11-10T10:02:07.426Z,67.24
2022-11-10T10:03:07.417Z,68.84
2022-11-10T10:04:07.423Z,65.34
2022-11-10T10:05:07.448Z,65.68
2022-11-10T10:06:07.390Z,67.72
2022-11-10T10:07:11.758Z,67.87
2022-11-10T10:08:08.378Z,66.92
2022-11-10T10:09:07.368Z,65.42
2022-11-10T10:10:07.394Z,63.48
2022-11-10T10:11:07.343Z,66.81
2022-11-10T10:12:07.342Z,69.42
2022-11-10T10:13:07.331Z,66.21
2022-11-10T10:14:07.318Z,65.34
2022-11-10T10:15:07.346Z,67.16
2022-11-10T10:16:07.295Z,62.77
2022-11-10T10:17:08.301Z,62.80
2022-11-10T10:18:07.291Z,63.49
2022-11-10T10:19:07.281Z,67.64
2022-11-10T10:20:07.315Z,72.71
2022-11-10T10:21:07.268Z,68.42
2022-11-10T10:22:07.258Z,65.51
2022-11-10T10:23:07.251Z,66.71
2022-11-10T10:24:11.407Z,71.00
2022-11-10T10:25:09.262Z,70.39
2022-11-10T10:26:07.242Z,68.00
2022-11-10T10:27:07.234Z,68.86
2022-11-10T10:28:07.218Z,72.51
2022-11-10T10:29:07.200Z,67.42
2022-11-10T10:30:07.299Z,68.02
2022-11-10T10:31:07.192Z,66.74
2022-11-10T10:32:07.177Z,68.92
2022-11-10T10:33:07.172Z,68.41
2022-11-10T10:34:07.157Z,64.55
2022-11-10T10:35:07.200Z,66.95
2022-11-10T10:36:07.200Z,67.43
2022-11-10T10:37:07.136Z,70.66
2022-11-10T10:38:07.117Z,69.49
2022-11-10T10:39:07.113Z,61.72
2022-11-10T10:40:07.139Z,69.18
2022-11-10T10:41:07.107Z,69.08
2022-11-10T10:42:07.098Z,70.86
2022-11-10T10:43:07.083Z,65.66
2022-11-10T10:44:07.949Z,62.71
2022-11-10T10:45:07.135Z,74.26
2022-11-10T10:46:07.078Z,69.25
2022-11-10T10:47:07.051Z,64.31
2022-11-10T10:48:07.029Z,68.13
2022-11-10T10:49:27.387Z,67.35
2022-11-10T10:50:09.076Z,67.04
2022-11-10T10:51:07.018Z,70.63
2022-11-10T10:52:07.009Z,64.70
2022-11-10T10:53:06.998Z,68.80
2022-11-10T10:54:06.988Z,71.68
2022-11-10T10:55:07.028Z,68.75
2022-11-10T10:56:06.979Z,67.25
2022-11-10T10:57:06.973Z,67.86
2022-11-10T10:58:06.960Z,70.35
2022-11-10T10:59:06.950Z,68.54
2022-11-10T11:00:06.971Z,67.76
2022-11-10T11:01:06.962Z,69.00
2022-11-10T11:02:06.922Z,71.49
2022-11-10T11:03:06.925Z,68.64
2022-11-10T11:04:06.923Z,66.32
2022-11-10T11:05:06.936Z,65.62
2022-11-10T11:06:06.893Z,70.68
2022-11-10T11:07:06.902Z,66.83
2022-11-10T11:08:06.872Z,66.12
2022-11-10T11:09:06.865Z,61.99
2022-11-10T11:10:06.861Z,71.28
2022-11-10T11:11:06.880Z,70.70
2022-11-10T11:12:06.840Z,70.64
2022-11-10T11:13:06.834Z,64.16
2022-11-10T11:14:06.834Z,66.47
2022-11-10T11:15:06.842Z,68.28
2022-11-10T11:16:06.850Z,67.77
2022-11-10T11:17:06.864Z,65.89
2022-11-10T11:18:06.789Z,60.55
2022-11-10T11:19:06.784Z,66.70
2022-11-10T11:20:06.778Z,69.58
2022-11-10T11:21:06.794Z,70.92
2022-11-10T11:22:06.766Z,69.26
2022-11-10T11:23:06.755Z,69.76
2022-11-10T11:24:06.748Z,72.01
2022-11-10T11:25:06.745Z,70.48
2022-11-10T11:26:06.775Z,64.36
2022-11-10T11:27:06.719Z,68.76
2022-11-10T11:28:06.716Z,67.86
2022-11-10T11:29:06.706Z,72.57
2022-11-10T11:30:06.706Z,69.65
2022-11-10T11:31:06.947Z,66.08
2022-11-10T11:32:06.677Z,64.40
2022-11-10T11:33:06.684Z,69.64
2022-11-10T11:34:06.667Z,65.58
2022-11-10T11:35:06.668Z,66.88
2022-11-10T11:36:06.686Z,66.15
2022-11-10T11:37:10.538Z,69.42
2022-11-10T11:38:08.625Z,70.08
2022-11-10T11:39:06.621Z,66.59
2022-11-10T11:40:06.615Z,69.65
2022-11-10T11:41:06.633Z,67.21
2022-11-10T11:42:06.603Z,69.41
2022-11-10T11:43:06.586Z,69.00
2022-11-10T11:44:06.578Z,70.58
2022-11-10T11:45:06.573Z,65.81
2022-11-10T11:46:06.584Z,67.70
2022-11-10T11:47:06.547Z,64.62
2022-11-10T11:48:06.543Z,70.88
2022-11-10T11:49:06.540Z,69.07
2022-11-10T11:50:06.554Z,66.43
2022-11-10T11:51:06.547Z,70.70
2022-11-10T11:52:06.514Z,67.41
2022-11-10T11:53:06.502Z,71.03
2022-11-10T11:54:06.502Z,69.80
2022-11-10T11:55:06.487Z,66.62
2022-11-10T11:56:06.509Z,63.52
2022-11-10T11:57:06.463Z,70.10
2022-11-10T11:58:06.463Z,72.57
2022-11-10T11:59:06.449Z,61.92
2022-11-10T12:00:06.455Z,66.95
2022-11-10T12:01:06.470Z,66.15
2022-11-10T12:02:06.489Z,64.68
2022-11-10T12:03:06.473Z,69.18
2022-11-10T12:04:06.415Z,67.83
2022-11-10T12:05:06.418Z,64.28
2022-11-10T12:06:06.425Z,67.03
2022-11-10T12:07:06.413Z,68.73
2022-11-10T12:08:06.397Z,68.26
2022-11-10T12:09:06.367Z,66.87
2022-11-10T12:10:07.378Z,66.13
2022-11-10T12:11:06.390Z,65.34
2022-11-10T12:12:06.358Z,67.58
2022-11-10T12:13:06.340Z,69.97
2022-11-10T12:14:06.346Z,70.27
2022-11-10T12:15:06.349Z,69.35
2022-11-10T12:16:06.340Z,68.24
2022-11-10T12:17:06.312Z,68.38
2022-11-10T12:18:06.306Z,66.71
2022-11-10T12:19:06.293Z,69.27
2022-11-10T12:20:06.288Z,69.85
2022-11-10T12:21:06.313Z,65.41
2022-11-10T12:22:06.277Z,70.39
2022-11-10T12:23:06.271Z,66.08
2022-11-10T12:24:10.133Z,69.27
2022-11-10T12:25:07.252Z,71.81
2022-11-10T12:26:06.263Z,67.02
2022-11-10T12:27:07.230Z,66.50
2022-11-10T12:28:06.232Z,67.95
2022-11-10T12:29:06.215Z,70.40
2022-11-10T12:30:06.200Z,70.97
2022-11-10T12:31:06.227Z,67.28
2022-11-10T12:32:06.194Z,68.01
2022-11-10T12:33:06.195Z,64.80
2022-11-10T12:34:06.187Z,69.39
2022-11-10T12:35:06.172Z,69.31
2022-11-10T12:36:06.189Z,70.72
2022-11-10T12:37:06.154Z,68.07
2022-11-10T12:38:06.156Z,70.61
2022-11-10T12:39:06.142Z,69.18
2022-11-10T12:40:06.131Z,70.01
2022-11-10T12:41:06.162Z,70.40
2022-11-10T12:42:06.118Z,65.90
2022-11-10T12:43:06.110Z,65.95
2022-11-10T12:44:06.101Z,66.69
2022-11-10T12:45:06.086Z,66.78
2022-11-10T12:46:06.119Z,66.84
2022-11-10T12:47:06.070Z,68.00
2022-11-10T12:48:06.094Z,67.62
2022-11-10T12:49:06.073Z,67.84
2022-11-10T12:50:06.058Z,64.69
2022-11-10T12:51:06.075Z,63.07
2022-11-10T12:52:06.035Z,67.86